sensor_id;sensor_type;location;lat;lon;timestamp;temperature;humidity
12264;DHT22;6194;49.010;8.414;2023-09-08T00:01:24;20.20;99.90
12264;DHT22;6194;49.010;8.414;2023-09-08T00:03:50;20.10;99.90
12264;DHT22;6194;49.010;8.414;2023-09-08T00:06:16;20.10;99.90
12264;DHT22;6194;49.010;8.414;2023-09-08T00:08:41;20.10;99.90
12264;DHT22;6194;49.010;8.414;2023-09-08T00:11:08;20.00;99.90
12264;DHT22;6194;49.010;8.414;2023-09-08T00:13:34;20.00;99.90
12264;DHT22;6194;49.010;8.414;2023-09-08T00:15:59;19.90;99.90
12264;DHT22;6194;49.010;8.414;2023-09-08T00:18:25;19.90;99.90
12264;DHT22;6194;49.010;8.414;2023-09-08T00:20:51;19.80;99.90
12264;DHT22;6194;49.010;8.414;2023-09-08T00:23:16;19.80;99.90
12264;DHT22;6194;49.010;8.414;2023-09-08T00:25:42;19.80;99.90
12264;DHT22;6194;49.010;8.414;2023-09-08T00:28:07;19.80;99.90
12264;DHT22;6194;49.010;8.414;2023-09-08T00:30:33;19.80;99.90
12264;DHT22;6194;49.010;8.414;2023-09-08T00:32:58;19.70;99.90
12264;DHT22;6194;49.010;8.414;2023-09-08T00:35:24;19.60;99.90
12264;DHT22;6194;49.010;8.414;2023-09-08T00:37:49;19.70;99.90
12264;DHT22;6194;49.010;8.414;2023-09-08T00:40:15;19.70;99.90
12264;DHT22;6194;49.010;8.414;2023-09-08T00:42:41;19.60;99.90
12264;DHT22;6194;49.010;8.414;2023-09-08T00:45:06;19.50;99.90
12264;DHT22;6194;49.010;8.414;2023-09-08T00:47:35;19.50;99.90
12264;DHT22;6194;49.010;8.414;2023-09-08T00:50:02;19.40;99.90
12264;DHT22;6194;49.010;8.414;2023-09-08T00:52:28;19.30;99.90
12264;DHT22;6194;49.010;8.414;2023-09-08T00:54:58;19.20;99.90
12264;DHT22;6194;49.010;8.414;2023-09-08T00:57:24;19.10;99.90
12264;DHT22;6194;49.010;8.414;2023-09-08T00:59:50;19.10;99.90
12264;DHT22;6194;49.010;8.414;2023-09-08T01:02:15;19.00;99.90
12264;DHT22;6194;49.010;8.414;2023-09-08T01:04:41;19.10;99.90
12264;DHT22;6194;49.010;8.414;2023-09-08T01:07:08;19.10;99.90
12264;DHT22;6194;49.010;8.414;2023-09-08T01:09:34;19.00;99.90
12264;DHT22;6194;49.010;8.414;2023-09-08T01:12:03;19.00;99.90
12264;DHT22;6194;49.010;8.414;2023-09-08T01:14:29;19.00;99.90
12264;DHT22;6194;49.010;8.414;2023-09-08T01:16:55;19.00;99.90
12264;DHT22;6194;49.010;8.414;2023-09-08T01:19:21;19.10;99.90
12264;DHT22;6194;49.010;8.414;2023-09-08T01:22:17;19.10;99.90
12264;DHT22;6194;49.010;8.414;2023-09-08T01:27:33;19.00;99.90
12264;DHT22;6194;49.010;8.414;2023-09-08T01:30:00;19.00;99.90
12264;DHT22;6194;49.010;8.414;2023-09-08T01:32:28;18.80;99.90
12264;DHT22;6194;49.010;8.414;2023-09-08T01:34:56;18.70;99.90
12264;DHT22;6194;49.010;8.414;2023-09-08T01:37:23;18.50;99.90
12264;DHT22;6194;49.010;8.414;2023-09-08T01:39:49;18.50;99.90
12264;DHT22;6194;49.010;8.414;2023-09-08T01:42:15;18.50;99.90
12264;DHT22;6194;49.010;8.414;2023-09-08T01:44:40;18.20;99.90
12264;DHT22;6194;49.010;8.414;2023-09-08T01:47:06;18.10;99.90
12264;DHT22;6194;49.010;8.414;2023-09-08T01:49:31;18.00;99.90
12264;DHT22;6194;49.010;8.414;2023-09-08T01:51:57;18.00;99.90
12264;DHT22;6194;49.010;8.414;2023-09-08T01:54:23;18.00;99.90
12264;DHT22;6194;49.010;8.414;2023-09-08T01:56:48;18.00;99.90
12264;DHT22;6194;49.010;8.414;2023-09-08T01:59:14;17.80;99.90
12264;DHT22;6194;49.010;8.414;2023-09-08T02:01:39;17.90;99.90
12264;DHT22;6194;49.010;8.414;2023-09-08T02:04:05;17.90;99.90
12264;DHT22;6194;49.010;8.414;2023-09-08T02:06:31;17.80;99.90
12264;DHT22;6194;49.010;8.414;2023-09-08T02:08:56;17.80;99.90
12264;DHT22;6194;49.010;8.414;2023-09-08T02:11:22;17.80;99.90
12264;DHT22;6194;49.010;8.414;2023-09-08T02:13:48;17.70;99.90
12264;DHT22;6194;49.010;8.414;2023-09-08T02:16:16;17.60;99.90
12264;DHT22;6194;49.010;8.414;2023-09-08T02:18:43;17.50;99.90
12264;DHT22;6194;49.010;8.414;2023-09-08T02:21:08;17.50;99.90
12264;DHT22;6194;49.010;8.414;2023-09-08T02:23:34;17.60;99.90
12264;DHT22;6194;49.010;8.414;2023-09-08T02:26:00;17.50;99.90
12264;DHT22;6194;49.010;8.414;2023-09-08T02:28:26;17.50;99.90
12264;DHT22;6194;49.010;8.414;2023-09-08T02:30:51;17.50;99.90
12264;DHT22;6194;49.010;8.414;2023-09-08T02:33:17;17.50;99.90
12264;DHT22;6194;49.010;8.414;2023-09-08T02:35:43;17.40;99.90
12264;DHT22;6194;49.010;8.414;2023-09-08T02:38:09;17.40;99.90
12264;DHT22;6194;49.010;8.414;2023-09-08T02:40:34;17.20;99.90
12264;DHT22;6194;49.010;8.414;2023-09-08T02:43:01;17.10;99.90
12264;DHT22;6194;49.010;8.414;2023-09-08T02:45:26;17.00;99.90
12264;DHT22;6194;49.010;8.414;2023-09-08T02:47:52;16.90;99.90
12264;DHT22;6194;49.010;8.414;2023-09-08T02:50:17;17.10;99.90
12264;DHT22;6194;49.010;8.414;2023-09-08T02:52:43;17.30;99.90
12264;DHT22;6194;49.010;8.414;2023-09-08T02:55:09;17.10;99.90
12264;DHT22;6194;49.010;8.414;2023-09-08T02:57:35;17.10;99.90
12264;DHT22;6194;49.010;8.414;2023-09-08T03:00:00;17.10;99.90
12264;DHT22;6194;49.010;8.414;2023-09-08T03:02:26;17.10;99.90
12264;DHT22;6194;49.010;8.414;2023-09-08T03:04:52;17.10;99.90
12264;DHT22;6194;49.010;8.414;2023-09-08T03:07:17;17.20;99.90
12264;DHT22;6194;49.010;8.414;2023-09-08T03:09:43;17.40;99.90
12264;DHT22;6194;49.010;8.414;2023-09-08T03:12:09;17.20;99.90
12264;DHT22;6194;49.010;8.414;2023-09-08T03:14:34;17.10;99.90
12264;DHT22;6194;49.010;8.414;2023-09-08T03:17:00;17.20;99.90
12264;DHT22;6194;49.010;8.414;2023-09-08T03:19:25;17.20;99.90
12264;DHT22;6194;49.010;8.414;2023-09-08T03:21:51;17.10;99.90
12264;DHT22;6194;49.010;8.414;2023-09-08T03:24:17;17.00;99.90
12264;DHT22;6194;49.010;8.414;2023-09-08T03:26:42;16.90;99.90
12264;DHT22;6194;49.010;8.414;2023-09-08T03:29:08;16.80;99.90
12264;DHT22;6194;49.010;8.414;2023-09-08T03:31:33;16.90;99.90
12264;DHT22;6194;49.010;8.414;2023-09-08T03:33:59;16.80;99.90
12264;DHT22;6194;49.010;8.414;2023-09-08T03:36:25;16.70;99.90
12264;DHT22;6194;49.010;8.414;2023-09-08T03:38:50;16.60;99.90
12264;DHT22;6194;49.010;8.414;2023-09-08T03:41:16;16.50;99.90
12264;DHT22;6194;49.010;8.414;2023-09-08T03:43:41;16.40;99.90
12264;DHT22;6194;49.010;8.414;2023-09-08T03:46:07;16.30;99.90
12264;DHT22;6194;49.010;8.414;2023-09-08T03:48:33;16.40;99.90
12264;DHT22;6194;49.010;8.414;2023-09-08T03:50:58;16.40;99.90
12264;DHT22;6194;49.010;8.414;2023-09-08T03:53:24;16.50;99.90
12264;DHT22;6194;49.010;8.414;2023-09-08T03:55:50;16.30;99.90
12264;DHT22;6194;49.010;8.414;2023-09-08T03:58:15;16.20;99.90
12264;DHT22;6194;49.010;8.414;2023-09-08T04:00:41;16.30;99.90
12264;DHT22;6194;49.010;8.414;2023-09-08T04:03:08;16.30;99.90
12264;DHT22;6194;49.010;8.414;2023-09-08T04:05:33;16.20;99.90
12264;DHT22;6194;49.010;8.414;2023-09-08T04:07:59;16.20;99.90
12264;DHT22;6194;49.010;8.414;2023-09-08T04:10:25;16.20;99.90
12264;DHT22;6194;49.010;8.414;2023-09-08T04:12:50;16.20;99.90
12264;DHT22;6194;49.010;8.414;2023-09-08T04:15:16;16.10;99.90
12264;DHT22;6194;49.010;8.414;2023-09-08T04:17:41;16.00;99.90
12264;DHT22;6194;49.010;8.414;2023-09-08T04:20:07;16.00;99.90
12264;DHT22;6194;49.010;8.414;2023-09-08T04:22:34;16.00;99.90
12264;DHT22;6194;49.010;8.414;2023-09-08T04:25:00;16.00;99.90
12264;DHT22;6194;49.010;8.414;2023-09-08T04:27:26;15.90;99.90
12264;DHT22;6194;49.010;8.414;2023-09-08T04:29:52;16.00;99.90
12264;DHT22;6194;49.010;8.414;2023-09-08T04:32:17;16.00;99.90
12264;DHT22;6194;49.010;8.414;2023-09-08T04:34:43;16.10;99.90
12264;DHT22;6194;49.010;8.414;2023-09-08T04:37:09;16.10;99.90
12264;DHT22;6194;49.010;8.414;2023-09-08T04:39:36;16.00;99.90
12264;DHT22;6194;49.010;8.414;2023-09-08T04:42:02;16.00;99.90
12264;DHT22;6194;49.010;8.414;2023-09-08T04:44:28;15.80;99.90
12264;DHT22;6194;49.010;8.414;2023-09-08T04:46:54;15.70;99.90
12264;DHT22;6194;49.010;8.414;2023-09-08T04:49:23;15.80;99.90
12264;DHT22;6194;49.010;8.414;2023-09-08T04:51:48;16.10;99.90
12264;DHT22;6194;49.010;8.414;2023-09-08T04:54:14;16.00;99.90
12264;DHT22;6194;49.010;8.414;2023-09-08T04:56:39;16.00;99.90
12264;DHT22;6194;49.010;8.414;2023-09-08T04:59:06;15.90;99.90
12264;DHT22;6194;49.010;8.414;2023-09-08T05:01:31;15.80;99.90
12264;DHT22;6194;49.010;8.414;2023-09-08T05:03:58;15.70;99.90
12264;DHT22;6194;49.010;8.414;2023-09-08T05:06:25;15.70;99.90
12264;DHT22;6194;49.010;8.414;2023-09-08T05:08:50;15.90;99.90
12264;DHT22;6194;49.010;8.414;2023-09-08T05:11:16;16.20;99.90
12264;DHT22;6194;49.010;8.414;2023-09-08T05:13:42;16.40;99.90
12264;DHT22;6194;49.010;8.414;2023-09-08T05:16:08;16.70;99.90
12264;DHT22;6194;49.010;8.414;2023-09-08T05:18:38;16.70;99.90
12264;DHT22;6194;49.010;8.414;2023-09-08T05:21:04;16.80;99.90
12264;DHT22;6194;49.010;8.414;2023-09-08T05:23:29;17.20;99.90
12264;DHT22;6194;49.010;8.414;2023-09-08T05:25:55;17.40;99.90
12264;DHT22;6194;49.010;8.414;2023-09-08T05:28:21;17.60;99.90
12264;DHT22;6194;49.010;8.414;2023-09-08T05:30:46;17.70;99.90
12264;DHT22;6194;49.010;8.414;2023-09-08T05:33:12;17.90;99.90
12264;DHT22;6194;49.010;8.414;2023-09-08T05:35:38;18.00;99.90
12264;DHT22;6194;49.010;8.414;2023-09-08T05:38:03;18.20;99.90
12264;DHT22;6194;49.010;8.414;2023-09-08T05:40:30;18.30;99.90
12264;DHT22;6194;49.010;8.414;2023-09-08T05:42:56;18.60;99.90
12264;DHT22;6194;49.010;8.414;2023-09-08T05:45:21;18.80;99.90
12264;DHT22;6194;49.010;8.414;2023-09-08T05:47:47;19.10;99.90
12264;DHT22;6194;49.010;8.414;2023-09-08T05:50:14;19.50;99.90
12264;DHT22;6194;49.010;8.414;2023-09-08T05:52:40;19.70;99.90
12264;DHT22;6194;49.010;8.414;2023-09-08T05:55:06;20.20;99.90
12264;DHT22;6194;49.010;8.414;2023-09-08T05:57:32;20.30;99.90
12264;DHT22;6194;49.010;8.414;2023-09-08T05:59:57;20.30;99.90
12264;DHT22;6194;49.010;8.414;2023-09-08T06:02:23;20.00;99.90
12264;DHT22;6194;49.010;8.414;2023-09-08T06:04:48;19.80;99.90
12264;DHT22;6194;49.010;8.414;2023-09-08T06:07:14;19.70;99.90
12264;DHT22;6194;49.010;8.414;2023-09-08T06:09:40;19.90;99.90
12264;DHT22;6194;49.010;8.414;2023-09-08T06:12:06;20.20;99.90
12264;DHT22;6194;49.010;8.414;2023-09-08T06:14:31;20.60;99.90
12264;DHT22;6194;49.010;8.414;2023-09-08T06:16:57;20.90;99.90
12264;DHT22;6194;49.010;8.414;2023-09-08T06:19:22;20.90;99.90
12264;DHT22;6194;49.010;8.414;2023-09-08T06:21:48;21.00;99.90
12264;DHT22;6194;49.010;8.414;2023-09-08T06:24:14;21.00;99.90
12264;DHT22;6194;49.010;8.414;2023-09-08T06:26:39;20.70;99.90
12264;DHT22;6194;49.010;8.414;2023-09-08T06:29:05;20.50;99.90
12264;DHT22;6194;49.010;8.414;2023-09-08T06:31:31;20.20;99.90
12264;DHT22;6194;49.010;8.414;2023-09-08T06:33:56;20.00;99.90
12264;DHT22;6194;49.010;8.414;2023-09-08T06:36:22;19.90;99.90
12264;DHT22;6194;49.010;8.414;2023-09-08T06:38:50;19.60;99.90
12264;DHT22;6194;49.010;8.414;2023-09-08T06:41:16;19.40;99.90
12264;DHT22;6194;49.010;8.414;2023-09-08T06:43:43;19.50;99.90
12264;DHT22;6194;49.010;8.414;2023-09-08T06:46:09;19.60;99.90
12264;DHT22;6194;49.010;8.414;2023-09-08T06:48:35;19.50;99.90
12264;DHT22;6194;49.010;8.414;2023-09-08T06:51:00;19.40;99.90
12264;DHT22;6194;49.010;8.414;2023-09-08T06:53:26;19.40;99.90
12264;DHT22;6194;49.010;8.414;2023-09-08T06:55:51;19.50;99.90
12264;DHT22;6194;49.010;8.414;2023-09-08T06:58:17;19.50;99.90
12264;DHT22;6194;49.010;8.414;2023-09-08T07:00:43;19.70;99.90
12264;DHT22;6194;49.010;8.414;2023-09-08T07:03:08;19.80;99.90
12264;DHT22;6194;49.010;8.414;2023-09-08T07:05:35;19.90;99.90
12264;DHT22;6194;49.010;8.414;2023-09-08T07:08:00;20.00;99.90
12264;DHT22;6194;49.010;8.414;2023-09-08T07:10:26;20.00;99.90
12264;DHT22;6194;49.010;8.414;2023-09-08T07:12:52;20.20;99.90
12264;DHT22;6194;49.010;8.414;2023-09-08T07:15:17;20.40;99.90
12264;DHT22;6194;49.010;8.414;2023-09-08T07:17:43;20.30;99.90
12264;DHT22;6194;49.010;8.414;2023-09-08T07:20:09;20.30;99.90
12264;DHT22;6194;49.010;8.414;2023-09-08T07:22:34;20.40;99.90
12264;DHT22;6194;49.010;8.414;2023-09-08T07:25:00;20.50;99.90
12264;DHT22;6194;49.010;8.414;2023-09-08T07:27:26;20.60;99.90
12264;DHT22;6194;49.010;8.414;2023-09-08T07:29:51;20.80;99.90
12264;DHT22;6194;49.010;8.414;2023-09-08T07:32:18;21.00;99.90
12264;DHT22;6194;49.010;8.414;2023-09-08T07:34:43;20.90;99.90
12264;DHT22;6194;49.010;8.414;2023-09-08T07:37:09;21.10;99.90
12264;DHT22;6194;49.010;8.414;2023-09-08T07:39:35;21.10;99.90
12264;DHT22;6194;49.010;8.414;2023-09-08T07:42:01;21.10;99.90
12264;DHT22;6194;49.010;8.414;2023-09-08T07:44:27;21.10;99.90
12264;DHT22;6194;49.010;8.414;2023-09-08T07:46:53;21.30;99.90
12264;DHT22;6194;49.010;8.414;2023-09-08T07:49:20;21.40;99.90
12264;DHT22;6194;49.010;8.414;2023-09-08T07:51:46;21.30;99.90
12264;DHT22;6194;49.010;8.414;2023-09-08T07:54:13;21.50;99.90
12264;DHT22;6194;49.010;8.414;2023-09-08T07:56:38;21.70;99.90
12264;DHT22;6194;49.010;8.414;2023-09-08T07:59:06;22.00;99.90
12264;DHT22;6194;49.010;8.414;2023-09-08T08:01:32;22.00;99.90
12264;DHT22;6194;49.010;8.414;2023-09-08T08:03:58;22.10;99.90
12264;DHT22;6194;49.010;8.414;2023-09-08T08:06:23;22.00;99.90
12264;DHT22;6194;49.010;8.414;2023-09-08T08:08:49;22.00;99.90
12264;DHT22;6194;49.010;8.414;2023-09-08T08:11:16;21.90;99.90
12264;DHT22;6194;49.010;8.414;2023-09-08T08:13:46;21.80;99.90
12264;DHT22;6194;49.010;8.414;2023-09-08T08:16:11;21.90;99.90
12264;DHT22;6194;49.010;8.414;2023-09-08T08:18:37;22.00;99.90
12264;DHT22;6194;49.010;8.414;2023-09-08T08:21:03;22.10;99.90
12264;DHT22;6194;49.010;8.414;2023-09-08T08:23:29;22.30;99.90
12264;DHT22;6194;49.010;8.414;2023-09-08T08:25:56;22.40;99.90
12264;DHT22;6194;49.010;8.414;2023-09-08T08:28:21;22.50;99.90
12264;DHT22;6194;49.010;8.414;2023-09-08T08:30:47;22.50;99.90
12264;DHT22;6194;49.010;8.414;2023-09-08T08:33:13;22.50;99.90
12264;DHT22;6194;49.010;8.414;2023-09-08T08:35:39;22.60;99.90
12264;DHT22;6194;49.010;8.414;2023-09-08T08:38:05;22.70;99.90
12264;DHT22;6194;49.010;8.414;2023-09-08T08:40:31;22.80;99.90
12264;DHT22;6194;49.010;8.414;2023-09-08T08:42:57;22.90;99.90
12264;DHT22;6194;49.010;8.414;2023-09-08T08:45:24;23.10;99.90
12264;DHT22;6194;49.010;8.414;2023-09-08T08:47:53;23.30;99.90
12264;DHT22;6194;49.010;8.414;2023-09-08T08:50:19;23.30;99.90
12264;DHT22;6194;49.010;8.414;2023-09-08T08:52:46;23.30;99.90
12264;DHT22;6194;49.010;8.414;2023-09-08T08:55:12;23.50;99.90
12264;DHT22;6194;49.010;8.414;2023-09-08T08:57:40;23.70;99.90
12264;DHT22;6194;49.010;8.414;2023-09-08T09:00:10;23.90;99.90
12264;DHT22;6194;49.010;8.414;2023-09-08T09:02:41;24.00;99.90
12264;DHT22;6194;49.010;8.414;2023-09-08T09:05:11;24.00;99.90
12264;DHT22;6194;49.010;8.414;2023-09-08T09:07:39;24.10;99.90
12264;DHT22;6194;49.010;8.414;2023-09-08T09:10:05;24.20;99.90
12264;DHT22;6194;49.010;8.414;2023-09-08T09:12:32;24.20;99.90
12264;DHT22;6194;49.010;8.414;2023-09-08T09:14:59;24.30;99.90
12264;DHT22;6194;49.010;8.414;2023-09-08T09:17:32;24.40;99.90
12264;DHT22;6194;49.010;8.414;2023-09-08T09:20:18;24.40;99.90
12264;DHT22;6194;49.010;8.414;2023-09-08T09:22:46;24.60;99.90
12264;DHT22;6194;49.010;8.414;2023-09-08T09:25:32;24.50;99.90
12264;DHT22;6194;49.010;8.414;2023-09-08T09:28:00;24.60;99.90
12264;DHT22;6194;49.010;8.414;2023-09-08T09:30:27;24.70;99.90
12264;DHT22;6194;49.010;8.414;2023-09-08T09:33:00;24.80;99.90
12264;DHT22;6194;49.010;8.414;2023-09-08T09:35:46;24.90;99.90
12264;DHT22;6194;49.010;8.414;2023-09-08T09:38:13;24.90;99.90
12264;DHT22;6194;49.010;8.414;2023-09-08T09:40:39;24.90;99.90
12264;DHT22;6194;49.010;8.414;2023-09-08T09:43:06;25.00;99.90
12264;DHT22;6194;49.010;8.414;2023-09-08T09:45:34;25.10;99.90
12264;DHT22;6194;49.010;8.414;2023-09-08T09:47:59;25.30;99.90
12264;DHT22;6194;49.010;8.414;2023-09-08T09:50:36;25.40;99.90
12264;DHT22;6194;49.010;8.414;2023-09-08T09:53:08;25.30;99.90
12264;DHT22;6194;49.010;8.414;2023-09-08T09:55:34;25.50;99.90
12264;DHT22;6194;49.010;8.414;2023-09-08T09:58:01;25.50;99.90
12264;DHT22;6194;49.010;8.414;2023-09-08T10:00:29;25.50;99.90
12264;DHT22;6194;49.010;8.414;2023-09-08T10:02:56;25.40;99.90
12264;DHT22;6194;49.010;8.414;2023-09-08T10:05:23;25.50;99.90
12264;DHT22;6194;49.010;8.414;2023-09-08T10:07:49;25.70;99.90
12264;DHT22;6194;49.010;8.414;2023-09-08T10:10:16;25.80;99.90
12264;DHT22;6194;49.010;8.414;2023-09-08T10:12:46;25.70;99.90
12264;DHT22;6194;49.010;8.414;2023-09-08T10:15:17;25.70;99.90
12264;DHT22;6194;49.010;8.414;2023-09-08T10:17:44;25.60;99.90
12264;DHT22;6194;49.010;8.414;2023-09-08T10:20:12;25.80;99.90
12264;DHT22;6194;49.010;8.414;2023-09-08T10:22:41;25.90;99.90
12264;DHT22;6194;49.010;8.414;2023-09-08T10:25:09;26.10;99.90
12264;DHT22;6194;49.010;8.414;2023-09-08T10:27:35;26.20;99.90
12264;DHT22;6194;49.010;8.414;2023-09-08T10:30:03;26.50;99.90
12264;DHT22;6194;49.010;8.414;2023-09-08T10:32:33;26.50;99.90
12264;DHT22;6194;49.010;8.414;2023-09-08T10:35:02;26.70;99.90
12264;DHT22;6194;49.010;8.414;2023-09-08T10:37:28;26.80;99.90
12264;DHT22;6194;49.010;8.414;2023-09-08T10:39:55;26.90;99.90
12264;DHT22;6194;49.010;8.414;2023-09-08T10:42:22;27.00;99.90
12264;DHT22;6194;49.010;8.414;2023-09-08T10:47:26;27.10;99.90
12264;DHT22;6194;49.010;8.414;2023-09-08T10:49:56;27.10;99.90
12264;DHT22;6194;49.010;8.414;2023-09-08T10:52:24;26.80;99.90
12264;DHT22;6194;49.010;8.414;2023-09-08T10:54:51;26.80;99.90
12264;DHT22;6194;49.010;8.414;2023-09-08T10:57:18;26.90;99.90
12264;DHT22;6194;49.010;8.414;2023-09-08T10:59:58;27.00;99.90
12264;DHT22;6194;49.010;8.414;2023-09-08T11:02:47;27.00;99.90
12264;DHT22;6194;49.010;8.414;2023-09-08T11:05:14;27.10;99.90
12264;DHT22;6194;49.010;8.414;2023-09-08T11:07:44;27.10;99.90
12264;DHT22;6194;49.010;8.414;2023-09-08T11:10:11;27.30;99.90
12264;DHT22;6194;49.010;8.414;2023-09-08T11:12:37;27.40;99.90
12264;DHT22;6194;49.010;8.414;2023-09-08T11:15:05;27.30;99.90
12264;DHT22;6194;49.010;8.414;2023-09-08T11:17:32;27.50;99.90
12264;DHT22;6194;49.010;8.414;2023-09-08T11:19:59;27.50;99.90
12264;DHT22;6194;49.010;8.414;2023-09-08T11:22:26;27.70;99.90
12264;DHT22;6194;49.010;8.414;2023-09-08T11:24:56;27.60;99.90
12264;DHT22;6194;49.010;8.414;2023-09-08T11:27:27;27.90;99.90
12264;DHT22;6194;49.010;8.414;2023-09-08T11:29:53;28.10;99.90
12264;DHT22;6194;49.010;8.414;2023-09-08T11:32:18;28.10;99.90
12264;DHT22;6194;49.010;8.414;2023-09-08T11:34:44;28.20;99.90
12264;DHT22;6194;49.010;8.414;2023-09-08T11:37:13;28.30;99.90
12264;DHT22;6194;49.010;8.414;2023-09-08T11:39:45;28.30;99.90
12264;DHT22;6194;49.010;8.414;2023-09-08T11:42:15;28.40;99.90
12264;DHT22;6194;49.010;8.414;2023-09-08T11:44:42;28.50;99.90
12264;DHT22;6194;49.010;8.414;2023-09-08T11:47:10;28.50;99.90
12264;DHT22;6194;49.010;8.414;2023-09-08T11:49:40;28.50;99.90
12264;DHT22;6194;49.010;8.414;2023-09-08T11:52:06;28.40;99.90
12264;DHT22;6194;49.010;8.414;2023-09-08T11:54:34;28.40;99.90
12264;DHT22;6194;49.010;8.414;2023-09-08T11:57:02;28.50;99.90
12264;DHT22;6194;49.010;8.414;2023-09-08T11:59:32;28.40;99.90
12264;DHT22;6194;49.010;8.414;2023-09-08T12:01:58;28.50;99.90
12264;DHT22;6194;49.010;8.414;2023-09-08T12:04:25;28.60;99.90
12264;DHT22;6194;49.010;8.414;2023-09-08T12:06:52;28.60;99.90
12264;DHT22;6194;49.010;8.414;2023-09-08T12:09:20;28.60;99.90
12264;DHT22;6194;49.010;8.414;2023-09-08T12:11:46;28.70;99.90
12264;DHT22;6194;49.010;8.414;2023-09-08T12:14:13;28.60;99.90
12264;DHT22;6194;49.010;8.414;2023-09-08T12:16:40;28.70;99.90
12264;DHT22;6194;49.010;8.414;2023-09-08T12:19:06;28.70;99.90
12264;DHT22;6194;49.010;8.414;2023-09-08T12:21:42;28.90;99.90
12264;DHT22;6194;49.010;8.414;2023-09-08T12:24:19;28.90;99.90
12264;DHT22;6194;49.010;8.414;2023-09-08T12:26:44;29.00;99.90
12264;DHT22;6194;49.010;8.414;2023-09-08T12:29:13;29.00;99.90
12264;DHT22;6194;49.010;8.414;2023-09-08T12:31:39;29.00;99.90
12264;DHT22;6194;49.010;8.414;2023-09-08T12:34:04;28.90;99.90
12264;DHT22;6194;49.010;8.414;2023-09-08T12:36:30;29.00;99.90
12264;DHT22;6194;49.010;8.414;2023-09-08T12:38:56;29.10;99.90
12264;DHT22;6194;49.010;8.414;2023-09-08T12:41:21;29.20;99.90
12264;DHT22;6194;49.010;8.414;2023-09-08T12:43:47;29.20;99.90
12264;DHT22;6194;49.010;8.414;2023-09-08T12:46:12;29.20;99.90
12264;DHT22;6194;49.010;8.414;2023-09-08T12:48:38;29.20;99.90
12264;DHT22;6194;49.010;8.414;2023-09-08T12:51:04;29.20;99.90
12264;DHT22;6194;49.010;8.414;2023-09-08T12:53:33;29.10;99.90
12264;DHT22;6194;49.010;8.414;2023-09-08T12:56:00;29.20;99.90
12264;DHT22;6194;49.010;8.414;2023-09-08T12:58:26;29.20;99.90
12264;DHT22;6194;49.010;8.414;2023-09-08T13:00:53;29.00;99.90
12264;DHT22;6194;49.010;8.414;2023-09-08T13:03:19;29.10;99.90
12264;DHT22;6194;49.010;8.414;2023-09-08T13:05:45;29.20;99.90
12264;DHT22;6194;49.010;8.414;2023-09-08T13:08:10;29.40;99.90
12264;DHT22;6194;49.010;8.414;2023-09-08T13:10:37;29.40;99.90
12264;DHT22;6194;49.010;8.414;2023-09-08T13:13:03;29.50;99.90
12264;DHT22;6194;49.010;8.414;2023-09-08T13:15:29;29.50;99.90
12264;DHT22;6194;49.010;8.414;2023-09-08T13:17:56;29.50;99.90
12264;DHT22;6194;49.010;8.414;2023-09-08T13:20:21;29.50;99.90
12264;DHT22;6194;49.010;8.414;2023-09-08T13:22:47;29.50;99.90
12264;DHT22;6194;49.010;8.414;2023-09-08T13:25:13;29.50;99.90
12264;DHT22;6194;49.010;8.414;2023-09-08T13:27:41;29.60;99.90
12264;DHT22;6194;49.010;8.414;2023-09-08T13:30:12;29.60;99.90
12264;DHT22;6194;49.010;8.414;2023-09-08T13:32:38;29.60;99.90
12264;DHT22;6194;49.010;8.414;2023-09-08T13:35:05;29.60;99.90
12264;DHT22;6194;49.010;8.414;2023-09-08T13:37:30;29.80;99.90
12264;DHT22;6194;49.010;8.414;2023-09-08T13:39:57;29.80;99.90
12264;DHT22;6194;49.010;8.414;2023-09-08T13:42:22;29.90;99.90
12264;DHT22;6194;49.010;8.414;2023-09-08T13:44:48;29.90;99.90
12264;DHT22;6194;49.010;8.414;2023-09-08T13:47:13;30.10;99.90
12264;DHT22;6194;49.010;8.414;2023-09-08T13:49:39;30.10;99.90
12264;DHT22;6194;49.010;8.414;2023-09-08T13:52:05;30.10;99.90
12264;DHT22;6194;49.010;8.414;2023-09-08T13:54:32;30.10;99.90
12264;DHT22;6194;49.010;8.414;2023-09-08T13:56:59;30.10;99.90
12264;DHT22;6194;49.010;8.414;2023-09-08T13:59:31;29.70;99.90
12264;DHT22;6194;49.010;8.414;2023-09-08T14:01:57;29.80;99.90
12264;DHT22;6194;49.010;8.414;2023-09-08T14:04:24;29.90;99.90
12264;DHT22;6194;49.010;8.414;2023-09-08T14:06:49;30.00;99.90
12264;DHT22;6194;49.010;8.414;2023-09-08T14:09:15;29.90;99.90
12264;DHT22;6194;49.010;8.414;2023-09-08T14:11:41;30.00;99.90
12264;DHT22;6194;49.010;8.414;2023-09-08T14:14:07;29.90;99.90
12264;DHT22;6194;49.010;8.414;2023-09-08T14:16:32;29.90;99.90
12264;DHT22;6194;49.010;8.414;2023-09-08T14:18:58;30.00;99.90
12264;DHT22;6194;49.010;8.414;2023-09-08T14:21:24;30.00;99.90
12264;DHT22;6194;49.010;8.414;2023-09-08T14:23:49;30.00;99.90
12264;DHT22;6194;49.010;8.414;2023-09-08T14:26:15;30.10;99.90
12264;DHT22;6194;49.010;8.414;2023-09-08T14:28:40;30.20;99.90
12264;DHT22;6194;49.010;8.414;2023-09-08T14:31:06;30.10;99.90
12264;DHT22;6194;49.010;8.414;2023-09-08T14:33:32;30.00;99.90
12264;DHT22;6194;49.010;8.414;2023-09-08T14:35:57;30.00;99.90
12264;DHT22;6194;49.010;8.414;2023-09-08T14:38:23;30.00;99.90
12264;DHT22;6194;49.010;8.414;2023-09-08T14:41:00;30.00;99.90
12264;DHT22;6194;49.010;8.414;2023-09-08T14:43:27;29.90;99.90
12264;DHT22;6194;49.010;8.414;2023-09-08T14:45:53;30.00;99.90
12264;DHT22;6194;49.010;8.414;2023-09-08T14:48:19;30.10;99.90
12264;DHT22;6194;49.010;8.414;2023-09-08T14:50:45;30.10;99.90
12264;DHT22;6194;49.010;8.414;2023-09-08T14:53:11;30.10;99.90
12264;DHT22;6194;49.010;8.414;2023-09-08T14:55:36;30.10;99.90
12264;DHT22;6194;49.010;8.414;2023-09-08T14:58:02;30.10;99.90
12264;DHT22;6194;49.010;8.414;2023-09-08T15:00:28;30.10;99.90
12264;DHT22;6194;49.010;8.414;2023-09-08T15:02:53;30.00;99.90
12264;DHT22;6194;49.010;8.414;2023-09-08T15:05:19;30.00;99.90
12264;DHT22;6194;49.010;8.414;2023-09-08T15:07:45;30.00;99.90
12264;DHT22;6194;49.010;8.414;2023-09-08T15:10:11;30.00;99.90
12264;DHT22;6194;49.010;8.414;2023-09-08T15:12:36;30.00;99.90
12264;DHT22;6194;49.010;8.414;2023-09-08T15:15:05;29.90;99.90
12264;DHT22;6194;49.010;8.414;2023-09-08T15:17:31;30.00;99.90
12264;DHT22;6194;49.010;8.414;2023-09-08T15:19:56;30.10;99.90
12264;DHT22;6194;49.010;8.414;2023-09-08T15:22:22;30.10;99.90
12264;DHT22;6194;49.010;8.414;2023-09-08T15:24:47;30.00;99.90
12264;DHT22;6194;49.010;8.414;2023-09-08T15:27:13;29.80;99.90
12264;DHT22;6194;49.010;8.414;2023-09-08T15:29:39;29.80;99.90
12264;DHT22;6194;49.010;8.414;2023-09-08T15:32:04;29.80;99.90
12264;DHT22;6194;49.010;8.414;2023-09-08T15:34:31;29.90;99.90
12264;DHT22;6194;49.010;8.414;2023-09-08T15:36:57;29.90;99.90
12264;DHT22;6194;49.010;8.414;2023-09-08T15:39:23;29.90;99.90
12264;DHT22;6194;49.010;8.414;2023-09-08T15:41:48;29.90;99.90
12264;DHT22;6194;49.010;8.414;2023-09-08T15:44:14;29.90;99.90
12264;DHT22;6194;49.010;8.414;2023-09-08T15:46:40;29.80;99.90